Airfield :
LOGIN :

Register | Disclaimer

   EN    FR    IT 

 










Legend :    VFR   Marginal VFR   IFR   Intensive IFR   Very Intensive IFR
Visi :
Ceiling :
>= 8 km
>= 3000ft
5 to 8 km
1000 to 3000 ft
1500m to 5 km
500 to 1000 ft
800 to 1500m
200 to 500 ft
< 800m
< 200 ft
Symbols :   Thunderstorms  Fog  Heavy snow  Heavy precipitations  Wind > 20 kt
SIGMETs :     Misc.  Thunderstorms  Icing  Turbulence  Mountain Waves  Volcanic Ashes






- Airport Elevation : 7 ft
- IATA code : XHE


LFTH - Hyeres

CURRENT METAR :
  • 281600Z AUTO 28011KT CAVOK 18/12 Q1017 NOSIG

EXPIRED METARs :
  • 281530Z AUTO 25017KT CAVOK 18/12 Q1017 NOSIG
  • 281500Z AUTO 25017KT CAVOK 19/12 Q1017 TEMPO 24015G25KT
  • 281430Z AUTO 25017KT CAVOK 19/11 Q1017 TEMPO 24015G25KT
  • 281400Z AUTO 25019KT CAVOK 20/11 Q1017 BECMG 26013G23KT
  • 281330Z AUTO 24019KT CAVOK 19/12 Q1017 BECMG 26013G23KT

TAF TAF LFTH
Valid from the 28 at 15:00 until the 29 at 15:00 UTC


281400Z 2815/2915 24015G25KT CAVOK
BECMG 2816/2818 28015KT
BECMG 2903/2906 27015G25KT
BECMG 2911/2913 29020G30KT



MET'MAP, your aeronautical weather chart ! - Copyright ORBIFLY December 2007 - Disclaimer

ORBIFLY MET'MAP TEAM :

Programming & Development : Alexandra Zaïnal
Concept & original design : Baudouin d'Aumeries
Assistance for programming : Marc-Olivier Méhu
Technical & hardware support : Manuel Goepfert

Contact : metmap@orbifly.com




SOURCES & CREDITS :

   NOAA